Time;durP1;ratioP1;P1;durP2;ratioP2;P2;SDS_P1;SDS_P2;PMS_P1;PMS_P2;Temp;Humidity;BMP_temperature;BMP_pressure;BME280_temperature;BME280_humidity;BME280_pressure;Samples;Min_cycle;Max_cycle;Signal;HPM_P1;HPM_P2
2023/07/18 00:00:32;;;;;;;0.00;0.00;;;11.10;99.90;;;;;;5084658;28;20524;-71
2023/07/18 00:02:59;;;;;;;0.00;0.00;;;11.10;99.90;;;;;;5084354;28;20637;-71
2023/07/18 00:05:25;;;;;;;0.20;0.10;;;11.10;99.90;;;;;;5085061;28;20051;-72
2023/07/18 00:07:50;;;;;;;0.43;0.43;;;11.10;99.90;;;;;;5084867;28;20113;-71
2023/07/18 00:10:19;;;;;;;0.40;0.40;;;11.00;99.90;;;;;;5084785;28;20123;-71
2023/07/18 00:12:45;;;;;;;0.00;0.00;;;11.00;99.90;;;;;;5084631;28;20042;-71
2023/07/18 00:15:12;;;;;;;0.38;0.38;;;11.10;99.90;;;;;;5084245;28;20040;-71
2023/07/18 00:17:40;;;;;;;0.10;0.10;;;11.00;99.90;;;;;;5084569;28;20402;-71
2023/07/18 00:20:09;;;;;;;0.00;0.00;;;11.10;99.90;;;;;;5084456;28;20143;-71
2023/07/18 00:22:35;;;;;;;0.30;0.30;;;11.10;99.90;;;;;;5084397;28;20044;-71
2023/07/18 00:25:01;;;;;;;0.38;0.25;;;11.10;99.90;;;;;;5084031;28;20134;-72
2023/07/18 00:27:28;;;;;;;0.38;0.35;;;11.10;99.90;;;;;;5084256;28;20443;-71
2023/07/18 00:29:57;;;;;;;0.13;0.13;;;11.00;99.90;;;;;;5083772;28;20052;-71
2023/07/18 00:32:23;;;;;;;7.05;0.30;;;11.10;99.90;;;;;;5083992;28;20073;-71
2023/07/18 00:34:56;;;;;;;1.05;1.00;;;11.40;99.90;;;;;;5084445;28;20040;-71
2023/07/18 00:37:22;;;;;;;0.03;0.03;;;11.00;99.90;;;;;;5083737;28;20087;-71
2023/07/18 00:39:48;;;;;;;0.17;0.10;;;11.00;99.90;;;;;;5083980;28;20494;-71
2023/07/18 00:42:13;;;;;;;0.00;0.00;;;11.00;99.90;;;;;;5083470;28;20067;-71
2023/07/18 00:44:39;;;;;;;0.00;0.00;;;11.00;99.90;;;;;;5082971;28;20176;-71
2023/07/18 00:47:07;;;;;;;0.35;0.35;;;11.00;99.90;;;;;;5084020;28;20078;-71
2023/07/18 00:49:33;;;;;;;0.00;0.00;;;11.00;99.90;;;;;;5083795;28;20055;-71
2023/07/18 00:52:00;;;;;;;1.00;0.38;;;11.00;99.90;;;;;;5083968;28;20048;-72
2023/07/18 00:54:27;;;;;;;0.00;0.00;;;10.90;99.90;;;;;;5083863;28;20051;-72
2023/07/18 00:56:53;;;;;;;1.15;0.25;;;10.90;99.90;;;;;;5083655;28;20044;-72
2023/07/18 00:59:21;;;;;;;0.20;0.20;;;10.90;99.90;;;;;;5083776;28;20036;-72
2023/07/18 01:01:46;;;;;;;0.17;0.17;;;10.90;99.90;;;;;;5084106;28;20056;-72
2023/07/18 01:04:13;;;;;;;1.00;0.45;;;10.90;99.90;;;;;;5083270;28;20142;-71
2023/07/18 01:06:39;;;;;;;1.65;0.45;;;10.80;99.90;;;;;;5082462;28;20200;-72
2023/07/18 01:09:05;;;;;;;6.05;1.08;;;10.80;99.90;;;;;;5082445;28;20106;-71
2023/07/18 01:11:33;;;;;;;0.00;0.00;;;10.90;99.90;;;;;;5082793;28;20083;-71
2023/07/18 01:13:58;;;;;;;0.30;0.30;;;10.80;99.90;;;;;;5083365;28;20044;-72
2023/07/18 01:16:24;;;;;;;0.25;0.17;;;10.80;99.90;;;;;;5083194;28;20043;-71
2023/07/18 01:18:50;;;;;;;0.20;0.20;;;12.00;99.90;;;;;;5082904;28;20518;-72
2023/07/18 01:21:20;;;;;;;0.00;0.00;;;11.00;99.90;;;;;;5083144;28;20744;-72
2023/07/18 01:23:45;;;;;;;0.05;0.05;;;10.80;99.90;;;;;;5082811;28;20522;-72
2023/07/18 01:26:14;;;;;;;2.78;0.85;;;10.80;99.90;;;;;;5083228;28;20040;-72
2023/07/18 01:28:40;;;;;;;0.00;0.00;;;10.70;99.90;;;;;;5082800;28;20180;-72
2023/07/18 01:31:06;;;;;;;0.30;0.30;;;10.70;99.90;;;;;;5083132;28;20040;-72
2023/07/18 01:33:32;;;;;;;0.32;0.32;;;10.70;99.90;;;;;;5082765;28;20048;-72
2023/07/18 01:35:58;;;;;;;0.52;0.15;;;10.70;99.90;;;;;;5082904;28;20371;-72
2023/07/18 01:38:29;;;;;;;0.20;0.10;;;10.70;99.90;;;;;;5082619;28;20083;-72
2023/07/18 01:41:01;;;;;;;0.03;0.03;;;10.70;99.90;;;;;;5083225;28;20056;-72
2023/07/18 01:43:27;;;;;;;0.25;0.25;;;10.70;99.90;;;;;;5082830;28;20052;-72
2023/07/18 01:45:59;;;;;;;0.45;0.45;;;10.70;99.90;;;;;;5083092;28;20059;-71
2023/07/18 01:48:26;;;;;;;7.97;0.10;;;10.70;99.90;;;;;;5082891;28;20043;-72
2023/07/18 01:50:52;;;;;;;0.00;0.00;;;10.70;99.90;;;;;;5082982;28;20059;-72
2023/07/18 01:53:18;;;;;;;1.38;0.32;;;10.70;99.90;;;;;;5082751;28;20410;-72
2023/07/18 01:55:43;;;;;;;4.03;1.27;;;10.80;99.90;;;;;;5082523;28;20044;-71
2023/07/18 01:58:09;;;;;;;0.28;0.28;;;10.80;99.90;;;;;;5082234;28;20052;-72
2023/07/18 02:00:38;;;;;;;0.57;0.57;;;10.80;99.90;;;;;;5082055;28;20055;-71
2023/07/18 02:03:05;;;;;;;0.50;0.43;;;10.90;99.90;;;;;;5082255;28;20040;-71
2023/07/18 02:05:32;;;;;;;9.95;1.08;;;10.90;99.90;;;;;;5082243;28;20214;-72
2023/07/18 02:07:57;;;;;;;0.10;0.10;;;10.90;99.90;;;;;;5082245;28;20047;-72
2023/07/18 02:10:24;;;;;;;0.17;0.15;;;10.80;99.90;;;;;;5082622;28;20040;-72
2023/07/18 02:12:53;;;;;;;0.13;0.10;;;10.90;99.90;;;;;;5082279;28;20510;-72
2023/07/18 02:15:19;;;;;;;0.22;0.20;;;11.00;99.90;;;;;;5082436;28;20044;-72
2023/07/18 02:17:46;;;;;;;0.22;0.15;;;10.90;99.90;;;;;;5082560;28;20055;-72
2023/07/18 02:20:13;;;;;;;0.38;0.38;;;10.90;99.90;;;;;;5082246;28;20055;-72
2023/07/18 02:22:42;;;;;;;0.25;0.25;;;11.00;99.90;;;;;;5082266;28;20108;-72
2023/07/18 02:25:09;;;;;;;1.65;0.85;;;11.00;99.90;;;;;;5082299;28;20066;-72
2023/07/18 02:27:39;;;;;;;0.00;0.00;;;11.00;99.90;;;;;;5082335;28;20052;-72
2023/07/18 02:30:08;;;;;;;0.20;0.15;;;11.10;99.90;;;;;;5082098;28;20052;-72
2023/07/18 02:32:34;;;;;;;0.15;0.15;;;11.10;99.90;;;;;;5082087;28;20070;-72
2023/07/18 02:35:00;;;;;;;2.30;1.40;;;11.10;99.90;;;;;;5081997;28;20044;-72
2023/07/18 02:37:26;;;;;;;0.00;0.00;;;11.10;99.90;;;;;;5082509;28;20521;-72
2023/07/18 02:39:52;;;;;;;0.65;0.65;;;11.20;99.90;;;;;;5082481;28;20090;-72
2023/07/18 02:42:18;;;;;;;0.03;0.00;;;11.10;99.90;;;;;;5081839;28;20422;-72
2023/07/18 02:44:45;;;;;;;0.90;0.40;;;11.10;99.90;;;;;;5082349;28;20044;-72
2023/07/18 02:47:11;;;;;;;0.10;0.10;;;11.10;99.90;;;;;;5081946;28;20060;-72
2023/07/18 02:49:36;;;;;;;0.10;0.10;;;11.10;99.90;;;;;;5081876;28;20411;-71
2023/07/18 02:52:05;;;;;;;0.30;0.30;;;11.00;99.90;;;;;;5081775;28;20052;-72
2023/07/18 02:54:31;;;;;;;0.57;0.25;;;11.00;99.90;;;;;;5081555;28;20144;-72
2023/07/18 02:56:58;;;;;;;0.20;0.20;;;11.00;99.90;;;;;;5081606;28;20123;-72
2023/07/18 02:59:24;;;;;;;0.00;0.00;;;11.00;99.90;;;;;;5082117;28;20048;-72
2023/07/18 03:01:50;;;;;;;0.00;0.00;;;10.90;99.90;;;;;;5081997;28;20088;-72
2023/07/18 03:04:16;;;;;;;1.50;1.10;;;10.90;99.90;;;;;;5081783;28;20075;-72
2023/07/18 03:06:43;;;;;;;0.00;0.00;;;10.90;99.90;;;;;;5082813;28;20036;-72
2023/07/18 03:09:09;;;;;;;0.30;0.30;;;11.10;99.90;;;;;;5085729;28;20510;-72
2023/07/18 03:11:35;;;;;;;0.00;0.00;;;11.10;99.90;;;;;;5085846;28;20127;-72
2023/07/18 03:14:00;;;;;;;0.20;0.20;;;11.10;99.90;;;;;;5086141;28;20047;-72
2023/07/18 03:16:26;;;;;;;0.30;0.22;;;11.10;99.90;;;;;;5085527;28;20055;-72
2023/07/18 03:18:54;;;;;;;2.17;0.32;;;11.10;99.90;;;;;;5085836;28;20050;-72
2023/07/18 03:21:19;;;;;;;0.00;0.00;;;11.10;99.90;;;;;;5085523;28;20062;-72
2023/07/18 03:23:45;;;;;;;0.55;0.30;;;11.10;99.90;;;;;;5085544;28;20040;-71
2023/07/18 03:26:11;;;;;;;0.32;0.28;;;11.10;99.90;;;;;;5084529;28;20530;-72
2023/07/18 03:28:37;;;;;;;0.08;0.05;;;11.20;99.90;;;;;;5085545;28;20422;-72
2023/07/18 03:31:02;;;;;;;1.13;1.02;;;11.20;99.90;;;;;;5085111;28;20044;-72
2023/07/18 03:33:28;;;;;;;0.68;0.65;;;11.10;99.90;;;;;;5085138;28;20054;-71
2023/07/18 03:35:54;;;;;;;0.10;0.10;;;11.10;99.90;;;;;;5085815;28;20051;-72
2023/07/18 03:38:20;;;;;;;0.13;0.13;;;11.10;99.90;;;;;;5085532;28;20050;-73
2023/07/18 03:40:50;;;;;;;0.10;0.10;;;11.10;99.90;;;;;;5085370;28;20123;-72
2023/07/18 03:43:15;;;;;;;7.13;1.65;;;11.20;99.90;;;;;;5085125;28;20109;-72
2023/07/18 03:45:41;;;;;;;0.30;0.30;;;11.30;99.90;;;;;;5085090;28;20450;-72
2023/07/18 03:48:07;;;;;;;0.28;0.28;;;11.20;99.90;;;;;;5084953;28;20044;-72
2023/07/18 03:50:32;;;;;;;2.10;0.90;;;11.20;99.90;;;;;;5085106;28;20444;-72
2023/07/18 03:52:58;;;;;;;1.13;0.70;;;11.20;99.90;;;;;;5085054;28;20123;-72
2023/07/18 03:55:23;;;;;;;0.17;0.17;;;11.20;99.90;;;;;;5085130;28;20052;-72
2023/07/18 03:57:49;;;;;;;0.05;0.05;;;11.20;99.90;;;;;;5084821;28;20040;-71
2023/07/18 04:00:17;;;;;;;15.23;0.57;;;11.20;99.90;;;;;;5084777;28;20121;-72
2023/07/18 04:02:45;;;;;;;2.30;1.38;;;11.20;99.90;;;;;;5084914;28;20598;-72
2023/07/18 04:05:13;;;;;;;0.63;0.22;;;11.20;99.90;;;;;;5084568;28;20097;-72
2023/07/18 04:07:40;;;;;;;0.10;0.10;;;11.30;99.90;;;;;;5084558;28;20048;-72
2023/07/18 04:10:06;;;;;;;5.63;1.70;;;11.30;99.90;;;;;;5084375;28;20144;-72
2023/07/18 04:12:32;;;;;;;0.60;0.60;;;11.30;99.90;;;;;;5084642;28;20143;-72
2023/07/18 04:14:58;;;;;;;1.85;1.10;;;11.40;99.90;;;;;;5084302;28;20126;-72
2023/07/18 04:17:24;;;;;;;0.10;0.10;;;11.40;99.90;;;;;;5084819;28;20536;-72
2023/07/18 04:19:52;;;;;;;0.00;0.00;;;11.40;99.90;;;;;;5083126;28;20127;-72
2023/07/18 04:22:17;;;;;;;0.03;0.03;;;11.50;99.90;;;;;;5084361;28;20448;-72
2023/07/18 04:24:43;;;;;;;0.43;0.20;;;11.50;99.90;;;;;;5083928;28;20047;-72
2023/07/18 04:27:09;;;;;;;0.10;0.10;;;11.60;99.90;;;;;;5083940;28;20085;-72
2023/07/18 04:29:34;;;;;;;0.43;0.38;;;11.70;99.90;;;;;;5082290;28;20067;-72
2023/07/18 04:32:00;;;;;;;0.00;0.00;;;11.80;99.90;;;;;;5083401;28;20402;-72
2023/07/18 04:34:25;;;;;;;0.38;0.32;;;11.80;99.90;;;;;;5083998;28;20383;-72
2023/07/18 04:36:51;;;;;;;0.20;0.10;;;11.90;99.90;;;;;;5082022;28;20040;-72
2023/07/18 04:39:17;;;;;;;1.15;0.80;;;12.00;99.90;;;;;;5080790;28;20494;-72
2023/07/18 04:41:42;;;;;;;1.63;1.13;;;12.10;99.90;;;;;;5080903;28;20095;-72
2023/07/18 04:44:08;;;;;;;0.00;0.00;;;12.20;99.90;;;;;;5080588;28;20058;-72
2023/07/18 04:46:33;;;;;;;1.55;0.55;;;12.30;99.90;;;;;;5080771;28;20102;-73
2023/07/18 04:48:59;;;;;;;0.00;0.00;;;12.50;99.90;;;;;;5080334;28;20502;-72
2023/07/18 04:51:25;;;;;;;0.65;0.65;;;12.50;99.90;;;;;;5080512;28;20047;-72
2023/07/18 04:53:50;;;;;;;0.28;0.28;;;12.60;99.90;;;;;;5080449;28;20079;-72
2023/07/18 04:56:16;;;;;;;0.00;0.00;;;12.70;99.90;;;;;;5080385;28;20051;-72
2023/07/18 04:58:42;;;;;;;0.65;0.65;;;12.70;99.90;;;;;;5080026;28;20056;-72
2023/07/18 05:01:08;;;;;;;0.32;0.32;;;12.70;99.90;;;;;;5080346;28;20051;-72
2023/07/18 05:03:33;;;;;;;3.40;0.73;;;12.80;99.90;;;;;;5080256;28;20044;-72
2023/07/18 05:05:59;;;;;;;8.05;1.13;;;12.80;99.90;;;;;;5079877;28;20052;-72
2023/07/18 05:08:26;;;;;;;0.10;0.10;;;12.90;99.90;;;;;;5079872;28;20046;-72
2023/07/18 05:11:00;;;;;;;0.10;0.10;;;12.90;99.90;;;;;;5079611;28;20489;-72
2023/07/18 05:13:26;;;;;;;0.73;0.35;;;12.90;99.90;;;;;;5079633;28;20482;-72
2023/07/18 05:15:52;;;;;;;1.75;1.00;;;13.00;99.90;;;;;;5080280;28;20123;-72
2023/07/18 05:18:17;;;;;;;0.32;0.30;;;13.00;99.90;;;;;;5080004;28;20043;-72
2023/07/18 05:20:43;;;;;;;4.18;0.98;;;13.10;99.90;;;;;;5079946;28;20117;-72
2023/07/18 05:23:08;;;;;;;0.17;0.17;;;13.20;99.90;;;;;;5079775;28;20544;-72
2023/07/18 05:25:34;;;;;;;0.63;0.22;;;13.70;99.90;;;;;;5080040;28;20048;-72
2023/07/18 05:28:00;;;;;;;0.32;0.22;;;14.50;99.90;;;;;;5082262;28;20564;-72
2023/07/18 05:30:27;;;;;;;0.73;0.38;;;15.00;99.90;;;;;;5081786;28;20081;-72
2023/07/18 05:32:55;;;;;;;0.55;0.08;;;15.20;99.90;;;;;;5082491;28;20048;-73
2023/07/18 05:35:21;;;;;;;0.50;0.43;;;15.60;99.90;;;;;;5082067;28;20044;-73
2023/07/18 05:37:47;;;;;;;2.80;1.38;;;16.20;99.90;;;;;;5082043;28;20478;-73
2023/07/18 05:40:13;;;;;;;2.30;0.60;;;16.70;1.00;;;;;;5082271;28;20471;-73
2023/07/18 05:42:44;;;;;;;0.38;0.28;;;17.60;99.90;;;;;;5080332;28;20064;-72
2023/07/18 05:45:10;;;;;;;0.00;0.00;;;18.30;1.00;;;;;;5082118;28;20490;-73
2023/07/18 05:47:37;;;;;;;4.65;0.75;;;18.40;99.90;;;;;;5082290;28;20044;-72
2023/07/18 05:50:04;;;;;;;1.38;1.08;;;18.10;99.90;;;;;;5082150;28;20419;-73
2023/07/18 05:52:30;;;;;;;0.10;0.10;;;17.80;99.90;;;;;;5082193;28;20144;-73
2023/07/18 05:54:56;;;;;;;0.45;0.30;;;17.60;99.90;;;;;;5080460;28;20085;-73
2023/07/18 05:57:21;;;;;;;0.85;0.75;;;17.20;1.00;;;;;;5082102;28;20059;-73
2023/07/18 05:59:48;;;;;;;0.10;0.10;;;16.90;99.90;;;;;;5082227;28;20128;-72
2023/07/18 06:02:14;;;;;;;0.70;0.65;;;16.90;99.90;;;;;;5081748;28;20051;-73
2023/07/18 06:04:40;;;;;;;1.95;0.90;;;16.90;99.90;;;;;;5082178;28;20048;-72
2023/07/18 06:07:06;;;;;;;3.03;0.57;;;17.00;99.90;;;;;;5081629;28;20051;-72
2023/07/18 06:09:32;;;;;;;1.42;1.00;;;16.80;99.90;;;;;;5081845;28;20549;-73
2023/07/18 06:11:58;;;;;;;0.00;0.00;;;17.10;1.00;;;;;;5076625;28;20073;-72
2023/07/18 06:14:24;;;;;;;0.93;0.50;;;17.70;99.90;;;;;;5072085;28;20047;-73
2023/07/18 06:16:50;;;;;;;2.80;1.33;;;18.10;1.00;;;;;;5079202;28;20486;-73
2023/07/18 06:19:16;;;;;;;0.57;0.40;;;18.60;99.90;;;;;;5081623;28;20051;-73
2023/07/18 06:21:42;;;;;;;0.85;0.75;;;19.70;1.00;;;;;;5080639;28;20040;-73
2023/07/18 06:24:08;;;;;;;6.78;0.68;;;20.80;99.90;;;;;;5080028;28;20521;-71
2023/07/18 06:26:34;;;;;;;0.35;0.35;;;21.40;1.00;;;;;;5079553;28;20944;-71
2023/07/18 06:28:59;;;;;;;4.00;0.77;;;21.70;1.00;;;;;;5079315;28;20044;-71
2023/07/18 06:31:25;;;;;;;0.05;0.05;;;21.60;1.00;;;;;;5079042;28;20036;-71
2023/07/18 06:33:51;;;;;;;0.82;0.80;;;21.20;1.00;;;;;;5078798;28;20174;-72
2023/07/18 06:36:16;;;;;;;0.38;0.38;;;20.60;1.00;;;;;;5078742;28;20486;-70
2023/07/18 06:38:43;;;;;;;1.95;1.33;;;20.20;99.90;;;;;;5073051;28;20092;-70
2023/07/18 06:41:08;;;;;;;0.28;0.20;;;19.70;1.00;;;;;;5068790;28;20201;-73
2023/07/18 06:43:34;;;;;;;42.80;2.20;;;19.70;1.00;;;;;;5077047;28;20666;-73
2023/07/18 06:46:00;;;;;;;0.45;0.38;;;20.50;1.00;;;;;;5082597;28;20044;-70
2023/07/18 06:48:26;;;;;;;0.00;0.00;;;21.50;1.00;;;;;;5081681;28;20348;-71
2023/07/18 06:50:53;;;;;;;1.77;0.55;;;21.90;1.00;;;;;;5081945;28;20047;-71
2023/07/18 06:53:20;;;;;;;3.33;1.50;;;21.70;99.90;;;;;;5082610;28;20051;-70
2023/07/18 06:55:49;;;;;;;0.20;0.20;;;21.30;99.90;;;;;;5082415;28;20545;-70
2023/07/18 06:58:19;;;;;;;1.38;0.52;;;20.80;99.90;;;;;;5082437;28;20109;-73
2023/07/18 07:00:46;;;;;;;0.15;0.15;;;20.50;1.00;;;;;;5083001;28;20048;-71
2023/07/18 07:03:12;;;;;;;0.22;0.22;;;20.30;1.00;;;;;;5082725;28;20051;-71
2023/07/18 07:05:40;;;;;;;1.33;0.70;;;20.20;1.00;;;;;;5082985;28;20148;-72
2023/07/18 07:08:10;;;;;;;0.20;0.15;;;20.30;1.00;;;;;;5083017;28;20040;-71
2023/07/18 07:10:36;;;;;;;0.20;0.20;;;20.40;1.00;;;;;;5080563;28;20044;-72
2023/07/18 07:13:05;;;;;;;1.45;0.75;;;20.40;1.00;;;;;;5081652;28;20055;-76
2023/07/18 07:15:32;;;;;;;3.30;0.88;;;20.90;1.00;;;;;;5081394;28;20529;-72
2023/07/18 07:17:59;;;;;;;0.10;0.10;;;21.20;99.90;;;;;;5081360;28;20087;-72
2023/07/18 07:20:25;;;;;;;0.15;0.15;;;21.40;99.90;;;;;;5062517;28;20086;-72
2023/07/18 07:22:54;;;;;;;0.05;0.05;;;22.00;99.90;;;;;;5061177;28;20048;-72
2023/07/18 07:25:20;;;;;;;9.32;0.93;;;22.50;99.90;;;;;;5061010;28;20151;-72
2023/07/18 07:27:46;;;;;;;0.50;0.50;;;22.40;99.90;;;;;;5067121;28;20047;-72
2023/07/18 07:30:16;;;;;;;0.30;0.17;;;22.50;99.90;;;;;;5081285;28;20040;-72
2023/07/18 07:32:47;;;;;;;0.32;0.30;;;22.30;99.90;;;;;;5080840;28;20465;-72
2023/07/18 07:35:16;;;;;;;0.22;0.17;;;22.10;99.90;;;;;;5074935;28;20491;-71
2023/07/18 07:37:42;;;;;;;0.17;0.17;;;22.20;99.90;;;;;;5070818;28;20685;-71
2023/07/18 07:40:11;;;;;;;0.55;0.50;;;22.50;99.90;;;;;;5076358;28;20040;-71
2023/07/18 07:42:42;;;;;;;0.52;0.43;;;23.10;99.90;;;;;;5080868;28;20071;-71
2023/07/18 07:45:08;;;;;;;0.75;0.68;;;24.00;99.90;;;;;;5080447;28;20139;-72
2023/07/18 07:47:34;;;;;;;0.00;0.00;;;24.30;99.90;;;;;;5080648;28;20520;-72
2023/07/18 07:50:03;;;;;;;0.00;0.00;;;25.00;99.90;;;;;;5080868;28;20040;-71
2023/07/18 07:52:29;;;;;;;0.10;0.10;;;25.70;99.90;;;;;;5080603;28;20044;-71
2023/07/18 07:54:55;;;;;;;1.45;0.70;;;25.50;99.90;;;;;;5079042;28;20518;-72
2023/07/18 07:57:21;;;;;;;1.25;0.45;;;25.50;99.90;;;;;;5080456;28;20124;-72
2023/07/18 07:59:48;;;;;;;1.30;0.40;;;26.10;99.90;;;;;;5080727;28;20044;-71
2023/07/18 08:02:14;;;;;;;0.25;0.22;;;26.70;99.90;;;;;;5080775;28;20105;-72
2023/07/18 08:04:44;;;;;;;0.22;0.20;;;26.90;99.90;;;;;;5080665;28;20249;-72
2023/07/18 08:07:09;;;;;;;1.25;1.02;;;27.50;99.90;;;;;;5080909;28;20047;-72
2023/07/18 08:09:36;;;;;;;2.17;0.70;;;28.00;99.90;;;;;;5064906;28;20045;-72
2023/07/18 08:12:03;;;;;;;0.60;0.57;;;28.40;99.90;;;;;;5060441;28;20045;-72
2023/07/18 08:14:30;;;;;;;0.00;0.00;;;28.40;99.90;;;;;;5060501;28;20056;-72
2023/07/18 08:16:55;;;;;;;0.73;0.63;;;28.60;86.10;;;;;;5059997;28;20048;-72
2023/07/18 08:19:22;;;;;;;1.08;0.25;;;28.70;1.00;;;;;;5059747;28;20056;-72
2023/07/18 08:21:48;;;;;;;0.98;0.47;;;28.40;1.00;;;;;;5059390;28;20053;-72
2023/07/18 08:24:14;;;;;;;3.67;1.08;;;27.90;1.00;;;;;;5059474;28;20055;-72
2023/07/18 08:26:40;;;;;;;0.63;0.22;;;27.60;1.00;;;;;;5059432;28;20051;-72
2023/07/18 08:29:06;;;;;;;0.35;0.28;;;27.50;1.00;;;;;;5059767;28;20040;-72
2023/07/18 08:31:31;;;;;;;0.47;0.38;;;27.70;1.00;;;;;;5059713;28;20044;-72
2023/07/18 08:33:57;;;;;;;0.15;0.15;;;28.60;1.00;;;;;;5059776;28;20127;-72
2023/07/18 08:36:23;;;;;;;1.85;1.13;;;29.20;1.00;;;;;;5059322;28;20056;-72
2023/07/18 08:38:51;;;;;;;0.80;0.32;;;29.40;99.90;;;;;;5059331;28;20101;-72
2023/07/18 08:41:20;;;;;;;0.05;0.05;;;29.80;99.90;;;;;;5059548;28;20414;-72
2023/07/18 08:43:47;;;;;;;3.80;0.77;;;30.10;99.90;;;;;;5058614;28;20065;-72
2023/07/18 08:46:14;;;;;;;0.85;0.82;;;30.40;99.90;;;;;;5059722;28;20052;-72
2023/07/18 08:48:47;;;;;;;0.57;0.47;;;30.40;99.90;;;;;;5059826;28;20139;-72
2023/07/18 08:51:14;;;;;;;0.30;0.10;;;30.10;99.90;;;;;;5059674;28;20463;-72
2023/07/18 08:53:40;;;;;;;0.10;0.10;;;29.70;99.90;;;;;;5059120;28;20039;-72
2023/07/18 08:56:09;;;;;;;0.38;0.38;;;29.80;99.90;;;;;;5059634;28;20102;-72
2023/07/18 08:58:38;;;;;;;0.20;0.20;;;29.60;99.90;;;;;;5061318;28;20083;-71
2023/07/18 09:01:10;;;;;;;0.17;0.13;;;29.70;99.90;;;;;;5074581;28;20127;-73
2023/07/18 09:03:36;;;;;;;0.55;0.50;;;29.10;99.90;;;;;;5080183;28;20055;-71
2023/07/18 09:06:03;;;;;;;1.23;0.63;;;28.70;99.90;;;;;;5080690;28;20137;-71
2023/07/18 09:08:43;;;;;;;0.22;0.22;;;27.80;99.90;;;;;;5082954;28;20571;-72
2023/07/18 09:11:12;;;;;;;0.20;0.20;;;27.80;99.90;;;;;;5082850;28;20044;-71
2023/07/18 09:13:39;;;;;;;0.20;0.20;;;27.80;99.90;;;;;;5082331;28;20048;-71
2023/07/18 09:16:20;;;;;;;1.88;1.20;;;27.60;99.90;;;;;;5082678;28;20043;-72
2023/07/18 09:18:57;;;;;;;0.75;0.40;;;27.20;99.90;;;;;;5080992;28;20047;-72
2023/07/18 09:21:23;;;;;;;0.80;0.52;;;26.90;99.90;;;;;;5080384;28;20610;-72
2023/07/18 09:23:50;;;;;;;0.25;0.22;;;26.90;99.90;;;;;;5080459;28;20203;-71
2023/07/18 09:26:20;;;;;;;0.70;0.47;;;26.80;99.90;;;;;;5080960;28;20940;-71
2023/07/18 09:28:47;;;;;;;8.48;1.00;;;27.60;99.90;;;;;;5080666;28;20874;-72
2023/07/18 09:31:17;;;;;;;8.20;1.23;;;28.20;99.90;;;;;;5080546;28;20395;-71
2023/07/18 09:33:43;;;;;;;0.68;0.63;;;27.80;99.90;;;;;;5081431;28;20055;-72
2023/07/18 09:36:14;;;;;;;1.08;0.63;;;27.40;99.90;;;;;;5082197;28;20505;-72
2023/07/18 09:38:40;;;;;;;1.08;0.52;;;27.10;99.90;;;;;;5082063;28;20079;-71
2023/07/18 09:41:07;;;;;;;2.25;1.23;;;26.90;99.90;;;;;;5081927;28;20630;-71
2023/07/18 09:43:34;;;;;;;0.15;0.15;;;26.80;99.90;;;;;;5082063;28;20140;-71
2023/07/18 09:46:01;;;;;;;0.57;0.35;;;26.40;99.90;;;;;;5081953;28;20040;-71
2023/07/18 09:48:27;;;;;;;2.28;0.52;;;26.00;99.90;;;;;;5082279;28;20063;-71
2023/07/18 09:50:55;;;;;;;0.10;0.10;;;25.60;99.90;;;;;;5081802;28;20044;-71
2023/07/18 09:53:23;;;;;;;0.28;0.20;;;25.50;99.90;;;;;;5081768;28;20059;-71
2023/07/18 09:55:50;;;;;;;0.43;0.32;;;25.30;99.90;;;;;;5082397;28;20048;-71
2023/07/18 09:58:19;;;;;;;3.10;1.20;;;25.20;99.90;;;;;;5081646;28;20063;-71
2023/07/18 10:00:46;;;;;;;2.42;0.43;;;24.90;99.90;;;;;;5081595;28;20124;-71
2023/07/18 10:03:11;;;;;;;0.10;0.10;;;25.00;99.90;;;;;;5082024;28;20080;-71
2023/07/18 10:05:37;;;;;;;0.40;0.28;;;25.60;99.90;;;;;;5081798;28;20044;-71
2023/07/18 10:08:06;;;;;;;0.10;0.00;;;26.10;99.90;;;;;;5081694;28;20048;-71
2023/07/18 10:10:32;;;;;;;1.05;0.65;;;26.40;99.90;;;;;;5081474;28;20178;-71
2023/07/18 10:12:59;;;;;;;0.88;0.55;;;26.60;99.90;;;;;;5081435;28;20126;-71
2023/07/18 10:15:27;;;;;;;0.00;0.00;;;26.40;99.90;;;;;;5081424;28;20148;-71
2023/07/18 10:17:53;;;;;;;0.10;0.10;;;26.50;99.90;;;;;;5085774;28;20510;-71
2023/07/18 10:20:20;;;;;;;0.13;0.13;;;26.70;99.90;;;;;;5085736;28;20048;-71
2023/07/18 10:22:57;;;;;;;3.35;1.17;;;26.90;99.90;;;;;;5086044;28;20058;-71
2023/07/18 10:25:26;;;;;;;1.55;0.88;;;26.90;99.90;;;;;;5085740;28;20123;-71
2023/07/18 10:27:52;;;;;;;0.20;0.20;;;26.80;99.90;;;;;;5085706;28;20548;-71
2023/07/18 10:30:20;;;;;;;0.82;0.50;;;27.00;99.90;;;;;;5085780;28;20043;-71
2023/07/18 10:32:57;;;;;;;0.00;0.00;;;27.00;99.90;;;;;;5085727;28;20044;-71
2023/07/18 10:35:27;;;;;;;0.00;0.00;;;27.00;99.90;;;;;;5085644;28;20048;-71
2023/07/18 10:37:54;;;;;;;0.03;0.03;;;27.30;99.90;;;;;;5085530;28;20415;-71
2023/07/18 10:40:39;;;;;;;1.08;0.70;;;27.80;99.90;;;;;;5085451;28;20040;-71
2023/07/18 10:43:06;;;;;;;0.20;0.13;;;28.10;99.90;;;;;;5085538;28;20094;-71
2023/07/18 10:45:37;;;;;;;0.17;0.10;;;28.60;99.90;;;;;;5085251;28;20452;-72
2023/07/18 10:48:10;;;;;;;0.17;0.10;;;28.90;99.90;;;;;;5085347;28;20581;-71
2023/07/18 10:50:36;;;;;;;0.20;0.20;;;28.60;93.30;;;;;;5085260;28;20044;-71
2023/07/18 10:53:03;;;;;;;0.85;0.35;;;28.50;99.70;;;;;;5085363;28;20498;-72
2023/07/18 10:55:29;;;;;;;3.28;0.20;;;28.50;99.90;;;;;;5085267;28;20040;-71
2023/07/18 10:57:55;;;;;;;0.10;0.10;;;28.40;87.90;;;;;;5084207;28;20500;-71
2023/07/18 11:00:23;;;;;;;0.00;0.00;;;28.40;93.90;;;;;;5084154;28;20329;-71
2023/07/18 11:02:49;;;;;;;0.93;0.57;;;28.40;92.40;;;;;;5076419;28;20051;-71
2023/07/18 11:05:14;;;;;;;4.90;0.70;;;28.30;87.10;;;;;;5079342;28;20818;-71
2023/07/18 11:07:44;;;;;;;0.30;0.20;;;28.40;77.40;;;;;;5082624;28;20044;-72
2023/07/18 11:10:10;;;;;;;0.00;0.00;;;28.20;60.50;;;;;;5078694;28;20047;-72
2023/07/18 11:12:36;;;;;;;0.30;0.30;;;28.30;58.10;;;;;;5081267;28;20080;-72
2023/07/18 11:15:06;;;;;;;0.17;0.13;;;28.10;35.30;;;;;;5081681;28;20421;-72
2023/07/18 11:17:32;;;;;;;0.00;0.00;;;28.10;42.20;;;;;;5081738;28;20058;-71
2023/07/18 11:19:58;;;;;;;0.20;0.13;;;28.00;12.00;;;;;;5081272;28;20765;-72
2023/07/18 11:22:24;;;;;;;0.05;0.05;;;28.00;25.60;;;;;;5081657;28;20087;-72
2023/07/18 11:24:51;;;;;;;0.20;0.10;;;28.40;37.90;;;;;;5081587;28;20082;-72
2023/07/18 11:27:18;;;;;;;0.10;0.10;;;29.00;57.60;;;;;;5080989;28;20044;-71
2023/07/18 11:29:57;;;;;;;9.30;0.77;;;29.30;1.00;;;;;;5081058;28;20048;-72
2023/07/18 11:32:34;;;;;;;0.05;0.05;;;29.10;1.00;;;;;;5081245;28;20530;-72
2023/07/18 11:35:00;;;;;;;1.00;0.30;;;29.10;1.00;;;;;;5081041;28;20143;-72
2023/07/18 11:37:27;;;;;;;0.00;0.00;;;29.20;1.00;;;;;;5080865;28;20075;-72
2023/07/18 11:39:57;;;;;;;0.52;0.30;;;28.90;1.00;;;;;;5080774;28;20046;-72
2023/07/18 11:42:25;;;;;;;0.00;0.00;;;28.50;1.00;;;;;;5081278;28;20105;-71
2023/07/18 11:44:53;;;;;;;2.47;0.40;;;27.70;1.00;;;;;;5066736;28;20461;-72
2023/07/18 11:47:19;;;;;;;0.00;0.00;;;27.00;1.00;;;;;;5060713;28;20525;-72
2023/07/18 11:49:45;;;;;;;0.10;0.10;;;26.50;1.00;;;;;;5060118;28;20647;-71
2023/07/18 11:52:11;;;;;;;0.00;0.00;;;26.00;99.90;;;;;;5060392;28;20503;-71
2023/07/18 11:54:37;;;;;;;0.05;0.05;;;25.50;99.90;;;;;;5060588;28;20124;-71
2023/07/18 11:57:03;;;;;;;0.00;0.00;;;25.00;99.90;;;;;;5060670;28;20131;-72
2023/07/18 11:59:30;;;;;;;0.10;0.10;;;24.70;99.90;;;;;;5059763;28;20361;-72
2023/07/18 12:01:56;;;;;;;0.17;0.13;;;24.50;99.90;;;;;;5060614;28;20053;-72
2023/07/18 12:04:22;;;;;;;0.20;0.10;;;24.10;99.90;;;;;;5059912;28;20071;-71
2023/07/18 12:06:48;;;;;;;0.57;0.20;;;23.90;99.90;;;;;;5060035;28;20050;-71
2023/07/18 12:09:14;;;;;;;0.38;0.08;;;23.70;1.00;;;;;;5059969;28;20127;-71
2023/07/18 12:11:40;;;;;;;0.15;0.15;;;23.60;99.90;;;;;;5060049;28;20144;-72
2023/07/18 12:14:08;;;;;;;3.45;0.65;;;23.50;1.00;;;;;;5060079;28;20143;-71
2023/07/18 12:16:34;;;;;;;1.00;0.40;;;23.50;1.00;;;;;;5060195;28;20049;-72
2023/07/18 12:19:00;;;;;;;4.57;0.60;;;23.50;1.00;;;;;;5060054;28;20502;-71
2023/07/18 12:21:26;;;;;;;0.32;0.30;;;23.60;1.00;;;;;;5060572;28;20048;-71
2023/07/18 12:23:51;;;;;;;1.65;0.55;;;23.70;1.00;;;;;;5059796;28;20139;-71
2023/07/18 12:26:17;;;;;;;0.00;0.00;;;23.70;1.00;;;;;;5059966;28;20119;-71
2023/07/18 12:28:44;;;;;;;0.15;0.13;;;24.00;1.00;;;;;;5059435;28;20047;-72
2023/07/18 12:31:11;;;;;;;0.00;0.00;;;24.10;1.00;;;;;;5059049;28;20534;-72
2023/07/18 12:33:38;;;;;;;0.45;0.10;;;24.40;1.00;;;;;;5058877;28;20051;-72
2023/07/18 12:36:05;;;;;;;0.10;0.10;;;24.80;1.00;;;;;;5058706;28;20405;-72
2023/07/18 12:38:30;;;;;;;0.20;0.17;;;25.00;1.00;;;;;;5073563;28;20425;-73
2023/07/18 12:40:56;;;;;;;0.47;0.32;;;25.50;1.00;;;;;;5078515;28;20060;-73
2023/07/18 12:43:22;;;;;;;0.20;0.20;;;26.90;1.00;;;;;;5079696;28;20048;-72
2023/07/18 12:45:47;;;;;;;0.85;0.70;;;26.90;1.00;;;;;;5079805;28;20044;-72